createdAt,value
2023-05-21T00:00:31.957Z,14.48
2023-05-21T00:04:33.870Z,16.27
2023-05-21T00:08:35.605Z,14.63
2023-05-21T00:12:37.316Z,13.95
2023-05-21T00:16:38.959Z,17.42
2023-05-21T00:20:41.627Z,16.20
2023-05-21T00:24:45.361Z,17.17
2023-05-21T00:28:47.010Z,19.23
2023-05-21T00:32:48.664Z,19.52
2023-05-21T00:36:50.262Z,15.40
2023-05-21T00:40:51.748Z,16.08
2023-05-21T00:44:56.962Z,18.10
2023-05-21T00:48:59.016Z,16.23
2023-05-21T00:53:00.783Z,15.27
2023-05-21T00:57:04.029Z,19.55
2023-05-21T01:01:06.867Z,17.13
2023-05-21T01:05:08.967Z,18.85
2023-05-21T01:09:10.532Z,18.25
2023-05-21T01:13:12.382Z,16.98
2023-05-21T01:17:14.639Z,22.70
2023-05-21T01:21:17.325Z,18.58
2023-05-21T01:27:02.346Z,18.05
2023-05-21T01:31:26.434Z,17.67
2023-05-21T01:35:32.857Z,16.75
2023-05-21T01:39:38.614Z,19.30
2023-05-21T01:43:43.862Z,19.42
2023-05-21T01:47:48.240Z,21.20
2023-05-21T01:51:49.978Z,22.33
2023-05-21T01:55:51.872Z,22.10
2023-05-21T01:59:53.706Z,18.42
2023-05-21T02:03:55.573Z,17.98
2023-05-21T02:07:57.214Z,23.05
2023-05-21T02:11:58.784Z,17.98
2023-05-21T02:16:01.570Z,20.70
2023-05-21T02:20:22.682Z,21.75
2023-05-21T02:24:24.480Z,25.60
2023-05-21T02:28:25.977Z,23.75
2023-05-21T02:32:27.540Z,19.85
2023-05-21T02:36:33.215Z,22.05
2023-05-21T02:40:34.884Z,20.45
2023-05-21T02:44:36.475Z,22.52
2023-05-21T02:48:37.998Z,21.20
2023-05-21T02:52:39.544Z,20.40
2023-05-21T02:56:41.431Z,21.48
2023-05-21T03:00:42.948Z,20.83
2023-05-21T03:04:47.824Z,21.58
2023-05-21T03:08:49.395Z,22.25
2023-05-21T03:12:50.979Z,20.88
2023-05-21T03:16:52.565Z,25.13
2023-05-21T03:20:54.154Z,22.38
2023-05-21T03:24:55.891Z,26.15
2023-05-21T03:28:57.546Z,23.13
2023-05-21T03:32:59.982Z,22.83
2023-05-21T03:37:01.560Z,24.80
2023-05-21T03:41:03.060Z,30.30
2023-05-21T03:45:04.943Z,24.33
2023-05-21T03:49:06.585Z,25.20
2023-05-21T03:53:10.706Z,22.92
2023-05-21T03:57:12.230Z,22.80
2023-05-21T04:01:13.727Z,23.77
2023-05-21T04:05:15.195Z,25.75
2023-05-21T04:09:16.852Z,26.30
2023-05-21T04:13:18.438Z,29.23
2023-05-21T04:17:20.788Z,22.25
2023-05-21T04:21:22.559Z,25.17
2023-05-21T04:25:25.316Z,25.27
2023-05-21T04:29:30.206Z,23.58
2023-05-21T04:33:31.713Z,25.35
2023-05-21T04:37:35.022Z,28.70
2023-05-21T04:41:36.737Z,24.20
2023-05-21T04:45:38.460Z,23.88
2023-05-21T04:49:40.375Z,23.85
2023-05-21T04:53:42.504Z,25.65
2023-05-21T04:57:44.020Z,24.00
2023-05-21T05:01:45.730Z,24.30
2023-05-21T05:05:47.591Z,25.38
2023-05-21T05:09:49.248Z,24.02
2023-05-21T05:13:52.243Z,22.77
2023-05-21T05:17:54.605Z,26.45
2023-05-21T05:21:56.268Z,22.92
2023-05-21T05:25:57.714Z,21.98
2023-05-21T05:29:59.199Z,24.27
2023-05-21T05:34:00.821Z,24.10
2023-05-21T05:38:02.326Z,25.35
2023-05-21T05:42:04.151Z,21.48
2023-05-21T05:46:05.628Z,22.98
2023-05-21T05:50:07.518Z,24.40
2023-05-21T05:54:08.977Z,23.85
2023-05-21T05:58:10.446Z,23.92
2023-05-21T06:02:12.066Z,20.52
2023-05-21T06:06:13.656Z,18.75
2023-05-21T06:10:15.340Z,22.98
2023-05-21T06:14:17.130Z,19.05
2023-05-21T06:18:18.632Z,23.00
2023-05-21T06:22:20.101Z,21.90
2023-05-21T06:26:21.919Z,25.85
2023-05-21T06:30:23.383Z,22.40
2023-05-21T06:34:25.479Z,19.85
2023-05-21T06:38:26.992Z,22.55
2023-05-21T06:42:28.440Z,20.05
2023-05-21T06:46:29.942Z,20.52
2023-05-21T06:50:31.495Z,17.60
2023-05-21T06:54:33.014Z,20.90
2023-05-21T06:58:34.603Z,20.15
2023-05-21T07:02:36.540Z,21.92
2023-05-21T07:06:39.128Z,17.77
2023-05-21T07:10:40.830Z,21.88
2023-05-21T07:14:42.257Z,22.13
2023-05-21T07:18:43.750Z,21.38
2023-05-21T07:22:45.368Z,21.95
2023-05-21T07:26:47.051Z,22.25
2023-05-21T07:30:48.611Z,22.70
2023-05-21T07:34:50.828Z,16.40
2023-05-21T07:38:53.105Z,21.95
2023-05-21T07:42:54.632Z,16.50
2023-05-21T07:46:56.227Z,17.52
2023-05-21T07:50:58.727Z,18.13
2023-05-21T07:55:01.581Z,19.05
2023-05-21T07:59:03.181Z,15.93
2023-05-21T08:03:07.565Z,15.60
2023-05-21T08:07:09.842Z,15.90
2023-05-21T08:11:11.472Z,15.38
2023-05-21T08:15:12.976Z,13.68
2023-05-21T08:19:14.641Z,18.88
2023-05-21T08:23:16.173Z,17.80
2023-05-21T08:27:17.648Z,14.93
2023-05-21T08:31:19.270Z,14.32
2023-05-21T08:35:20.950Z,12.40
2023-05-21T08:39:22.485Z,13.50
2023-05-21T08:43:29.141Z,12.55
2023-05-21T08:47:34.329Z,14.77
2023-05-21T08:51:36.030Z,12.20
2023-05-21T08:55:38.875Z,14.18
2023-05-21T08:59:44.131Z,11.05
2023-05-21T09:07:55.377Z,11.63
2023-05-21T09:11:56.892Z,9.98
2023-05-21T09:15:59.232Z,11.52
2023-05-21T09:20:16.629Z,10.90
2023-05-21T09:24:22.511Z,10.48
2023-05-21T09:28:25.038Z,12.32
2023-05-21T09:32:26.520Z,12.52
2023-05-21T09:36:29.604Z,9.48
2023-05-21T09:40:31.332Z,15.98
2023-05-21T09:44:32.997Z,9.10
2023-05-21T09:48:40.781Z,8.63
2023-05-21T09:52:42.415Z,7.33
2023-05-21T09:56:44.121Z,8.13
2023-05-21T10:00:45.908Z,7.05
2023-05-21T10:04:50.279Z,9.90
2023-05-21T10:08:56.641Z,7.75
2023-05-21T10:13:06.708Z,7.57
2023-05-21T10:17:09.321Z,8.20
2023-05-21T10:21:11.011Z,5.80
2023-05-21T10:25:13.195Z,5.55
2023-05-21T10:29:17.434Z,5.30
2023-05-21T10:33:24.157Z,8.00
2023-05-21T10:37:27.583Z,4.72
2023-05-21T10:41:36.052Z,5.72
2023-05-21T10:45:56.894Z,5.90
2023-05-21T10:50:08.589Z,7.60
2023-05-21T10:54:18.946Z,6.55
2023-05-21T10:58:44.128Z,5.07
2023-05-21T11:02:46.894Z,7.65
2023-05-21T11:06:48.836Z,7.22
2023-05-21T11:11:00.546Z,5.32
2023-05-21T11:15:02.275Z,17.75
2023-05-21T11:19:08.731Z,6.28
2023-05-21T11:23:11.388Z,7.55
2023-05-21T11:27:12.999Z,18.20
2023-05-21T11:31:27.847Z,10.75
2023-05-21T11:35:29.379Z,7.05
2023-05-21T11:39:40.204Z,6.78
2023-05-21T11:43:43.686Z,7.25
2023-05-21T11:47:46.872Z,6.20
2023-05-21T11:51:48.662Z,10.45
2023-05-21T11:55:50.906Z,5.18
2023-05-21T11:59:52.596Z,7.07
2023-05-21T12:03:54.160Z,4.68
2023-05-21T12:07:56.437Z,6.53
2023-05-21T12:11:58.108Z,5.03
2023-05-21T12:15:59.812Z,4.50
2023-05-21T12:20:04.998Z,5.97
2023-05-21T12:24:06.703Z,6.72
2023-05-21T12:28:08.910Z,6.00
2023-05-21T12:32:12.731Z,10.15
2023-05-21T12:36:27.238Z,5.53
2023-05-21T12:40:39.712Z,5.20
2023-05-21T12:44:47.903Z,9.82
2023-05-21T12:48:51.559Z,8.85
2023-05-21T12:52:58.351Z,4.20
2023-05-21T12:57:09.667Z,6.65
2023-05-21T13:01:12.389Z,8.07
2023-05-21T13:05:18.358Z,5.55
2023-05-21T13:09:19.885Z,4.68
2023-05-21T13:13:21.358Z,7.25
2023-05-21T13:17:24.679Z,8.57
2023-05-21T13:21:26.294Z,8.23
2023-05-21T13:25:29.134Z,5.25
2023-05-21T13:29:31.286Z,6.32
2023-05-21T13:33:32.904Z,14.13
2023-05-21T13:37:37.857Z,5.28
2023-05-21T13:41:39.384Z,6.18
2023-05-21T13:45:41.015Z,4.95
2023-05-21T13:49:42.722Z,5.00
2023-05-21T13:53:44.210Z,5.15
2023-05-21T13:57:46.259Z,7.57
2023-05-21T14:01:49.834Z,5.00
2023-05-21T14:05:53.650Z,6.35
2023-05-21T14:09:56.037Z,4.15
2023-05-21T14:13:58.483Z,6.10
2023-05-21T14:18:00.082Z,6.88
2023-05-21T14:22:02.092Z,8.30
2023-05-21T14:26:03.683Z,7.65
2023-05-21T14:30:05.728Z,5.40
2023-05-21T14:34:08.679Z,5.18
2023-05-21T14:38:11.113Z,6.55
2023-05-21T14:42:12.895Z,7.90
2023-05-21T14:46:14.368Z,6.68
2023-05-21T14:50:16.532Z,7.07
2023-05-21T14:54:18.046Z,6.57
2023-05-21T14:58:20.004Z,6.47
2023-05-21T15:02:22.382Z,11.10
2023-05-21T15:06:24.515Z,5.88
2023-05-21T15:10:27.482Z,6.20
2023-05-21T15:14:28.974Z,4.78
2023-05-21T15:18:30.536Z,6.80
2023-05-21T15:22:32.674Z,9.65
2023-05-21T15:26:34.125Z,8.75
2023-05-21T15:30:35.749Z,6.30
2023-05-21T15:34:37.409Z,5.00
2023-05-21T15:38:38.980Z,7.53
2023-05-21T15:42:40.698Z,8.02
2023-05-21T15:46:42.178Z,5.25
2023-05-21T15:50:43.679Z,12.70
2023-05-21T15:54:45.539Z,5.38
2023-05-21T15:58:47.035Z,5.20
2023-05-21T16:02:48.645Z,10.77
2023-05-21T16:06:50.319Z,6.15
2023-05-21T16:10:51.852Z,4.63
2023-05-21T16:14:56.053Z,6.20
2023-05-21T16:18:57.622Z,5.90
2023-05-21T16:22:59.134Z,7.28
2023-05-21T16:27:03.092Z,4.60
2023-05-21T16:31:04.928Z,4.82
2023-05-21T16:35:07.190Z,6.15
2023-05-21T16:39:14.862Z,6.38
2023-05-21T16:43:16.749Z,8.43
2023-05-21T16:47:24.329Z,5.38
2023-05-21T16:51:25.909Z,7.93
2023-05-21T16:55:27.401Z,9.70
2023-05-21T16:59:28.860Z,10.38
2023-05-21T17:03:32.376Z,4.63
2023-05-21T17:07:34.299Z,7.32
2023-05-21T17:11:36.075Z,5.47
2023-05-21T17:15:37.942Z,6.93
2023-05-21T17:19:39.754Z,6.35
2023-05-21T17:23:42.790Z,6.93
2023-05-21T17:27:47.517Z,5.93
2023-05-21T17:31:49.298Z,5.45
2023-05-21T17:35:50.959Z,4.28
2023-05-21T17:39:52.509Z,8.07
2023-05-21T17:43:54.305Z,6.47
2023-05-21T17:47:59.651Z,9.45
2023-05-21T17:52:04.387Z,5.78
2023-05-21T17:56:06.859Z,6.18
2023-05-21T18:00:09.032Z,5.45
2023-05-21T18:04:12.266Z,7.68
2023-05-21T18:08:14.316Z,10.43
2023-05-21T18:12:16.483Z,5.47
2023-05-21T18:16:18.494Z,5.00
2023-05-21T18:20:20.015Z,5.20
2023-05-21T18:24:21.537Z,6.40
2023-05-21T18:28:23.089Z,6.15
2023-05-21T18:32:24.927Z,8.43
2023-05-21T18:36:26.717Z,5.13
2023-05-21T18:40:30.606Z,4.82
2023-05-21T18:44:32.708Z,5.75
2023-05-21T18:48:34.197Z,7.22
2023-05-21T18:52:35.671Z,4.75
2023-05-21T18:56:37.222Z,7.35
2023-05-21T19:00:39.726Z,8.45
2023-05-21T19:04:41.553Z,7.00
2023-05-21T19:08:52.533Z,5.00
2023-05-21T19:12:54.147Z,5.35
2023-05-21T19:16:55.808Z,9.68
2023-05-21T19:20:57.562Z,7.55
2023-05-21T19:24:59.364Z,3.78
2023-05-21T19:29:01.060Z,4.63
2023-05-21T19:33:02.677Z,5.38
2023-05-21T19:37:04.514Z,6.22
2023-05-21T19:41:06.078Z,4.40
2023-05-21T19:45:09.576Z,9.05
2023-05-21T19:49:12.582Z,5.07
2023-05-21T19:53:14.052Z,6.35
2023-05-21T19:57:16.467Z,7.35
2023-05-21T20:01:18.692Z,4.93
2023-05-21T20:05:20.481Z,8.25
2023-05-21T20:09:22.065Z,7.55
2023-05-21T20:13:24.216Z,8.50
2023-05-21T20:17:25.700Z,9.73
2023-05-21T20:21:29.559Z,6.13
2023-05-21T20:25:31.063Z,7.75
2023-05-21T20:29:32.733Z,5.57
2023-05-21T20:33:35.161Z,4.38
2023-05-21T20:37:36.733Z,7.47
2023-05-21T20:41:38.681Z,4.70
2023-05-21T20:45:41.754Z,6.28
2023-05-21T20:49:43.777Z,5.10
2023-05-21T20:53:45.310Z,4.57
2023-05-21T20:57:47.238Z,5.57
2023-05-21T21:01:48.798Z,5.75
2023-05-21T21:05:50.646Z,6.28
2023-05-21T21:09:52.146Z,9.43
2023-05-21T21:13:53.715Z,7.35
2023-05-21T21:17:55.305Z,4.97
2023-05-21T21:21:56.925Z,5.32
2023-05-21T21:25:58.474Z,6.45
2023-05-21T21:29:59.975Z,5.50
2023-05-21T21:34:01.555Z,5.22
2023-05-21T21:38:05.140Z,5.45
2023-05-21T21:42:07.048Z,6.15
2023-05-21T21:46:08.773Z,5.47
2023-05-21T21:50:10.668Z,5.88
2023-05-21T21:54:12.291Z,8.98
2023-05-21T21:58:13.829Z,6.95
2023-05-21T22:02:17.822Z,5.95
2023-05-21T22:06:19.400Z,5.15
2023-05-21T22:10:21.223Z,8.05
2023-05-21T22:14:23.273Z,5.35
2023-05-21T22:18:38.841Z,4.60
2023-05-21T22:22:41.536Z,4.88
2023-05-21T22:26:43.633Z,6.90
2023-05-21T22:30:45.137Z,6.65
2023-05-21T22:34:46.753Z,5.05
2023-05-21T22:38:48.173Z,4.70
2023-05-21T22:42:49.675Z,6.03
2023-05-21T22:46:51.908Z,5.20
2023-05-21T22:50:54.391Z,7.20
2023-05-21T22:54:57.822Z,6.38
2023-05-21T22:58:59.541Z,6.60
2023-05-21T23:03:01.361Z,8.85
2023-05-21T23:07:03.060Z,7.40
2023-05-21T23:11:04.604Z,4.97
2023-05-21T23:15:07.481Z,5.70
2023-05-21T23:19:09.223Z,5.43
2023-05-21T23:23:11.270Z,5.10
2023-05-21T23:27:12.765Z,5.70
2023-05-21T23:31:14.384Z,5.72
2023-05-21T23:35:16.214Z,5.05
2023-05-21T23:39:18.357Z,7.22
2023-05-21T23:43:19.897Z,5.20
2023-05-21T23:47:21.394Z,7.03
2023-05-21T23:51:23.026Z,4.93
2023-05-21T23:55:24.521Z,4.80
2023-05-21T23:59:26.039Z,4.78
